sensor_id;sensor_type;location;lat;lon;timestamp;P1;durP1;ratioP1;P2;durP2;ratioP2
18505;SDS011;9382;53.242;10.438;2023-05-10T00:00:27;5.73;;;4.07;;
18505;SDS011;9382;53.242;10.438;2023-05-10T00:02:54;6.30;;;4.00;;
18505;SDS011;9382;53.242;10.438;2023-05-10T00:05:20;8.20;;;3.80;;
18505;SDS011;9382;53.242;10.438;2023-05-10T00:07:47;8.40;;;3.87;;
18505;SDS011;9382;53.242;10.438;2023-05-10T00:10:13;7.07;;;4.03;;
18505;SDS011;9382;53.242;10.438;2023-05-10T00:12:42;5.70;;;3.80;;
18505;SDS011;9382;53.242;10.438;2023-05-10T00:15:08;5.00;;;3.97;;
18505;SDS011;9382;53.242;10.438;2023-05-10T00:17:36;4.83;;;3.93;;
18505;SDS011;9382;53.242;10.438;2023-05-10T00:20:04;8.40;;;4.10;;
18505;SDS011;9382;53.242;10.438;2023-05-10T00:22:31;5.60;;;3.90;;
18505;SDS011;9382;53.242;10.438;2023-05-10T00:24:58;4.90;;;4.07;;
18505;SDS011;9382;53.242;10.438;2023-05-10T00:27:25;7.37;;;4.10;;
18505;SDS011;9382;53.242;10.438;2023-05-10T00:29:53;5.73;;;4.13;;
18505;SDS011;9382;53.242;10.438;2023-05-10T00:32:19;8.40;;;4.30;;
18505;SDS011;9382;53.242;10.438;2023-05-10T00:34:46;6.00;;;3.90;;
18505;SDS011;9382;53.242;10.438;2023-05-10T00:37:13;4.53;;;3.80;;
18505;SDS011;9382;53.242;10.438;2023-05-10T00:39:39;7.23;;;4.30;;
18505;SDS011;9382;53.242;10.438;2023-05-10T00:42:06;4.97;;;3.80;;
18505;SDS011;9382;53.242;10.438;2023-05-10T00:44:33;5.50;;;4.23;;
18505;SDS011;9382;53.242;10.438;2023-05-10T00:47:01;7.07;;;4.27;;
18505;SDS011;9382;53.242;10.438;2023-05-10T00:49:28;5.53;;;4.20;;
18505;SDS011;9382;53.242;10.438;2023-05-10T00:51:55;5.13;;;4.10;;
18505;SDS011;9382;53.242;10.438;2023-05-10T00:54:22;6.97;;;4.50;;
18505;SDS011;9382;53.242;10.438;2023-05-10T00:56:48;4.97;;;4.07;;
18505;SDS011;9382;53.242;10.438;2023-05-10T00:59:15;7.37;;;3.93;;
18505;SDS011;9382;53.242;10.438;2023-05-10T01:01:42;6.73;;;4.13;;
18505;SDS011;9382;53.242;10.438;2023-05-10T01:04:11;13.10;;;4.30;;
18505;SDS011;9382;53.242;10.438;2023-05-10T01:06:38;7.37;;;4.27;;
18505;SDS011;9382;53.242;10.438;2023-05-10T01:09:05;7.70;;;4.27;;
18505;SDS011;9382;53.242;10.438;2023-05-10T01:11:32;9.20;;;4.50;;
18505;SDS011;9382;53.242;10.438;2023-05-10T01:14:00;4.57;;;4.03;;
18505;SDS011;9382;53.242;10.438;2023-05-10T01:16:27;5.90;;;4.20;;
18505;SDS011;9382;53.242;10.438;2023-05-10T01:18:57;7.10;;;4.20;;
18505;SDS011;9382;53.242;10.438;2023-05-10T01:21:27;5.30;;;4.07;;
18505;SDS011;9382;53.242;10.438;2023-05-10T01:24:09;5.87;;;4.40;;
18505;SDS011;9382;53.242;10.438;2023-05-10T01:29:59;5.90;;;4.43;;
18505;SDS011;9382;53.242;10.438;2023-05-10T01:32:36;5.20;;;3.93;;
18505;SDS011;9382;53.242;10.438;2023-05-10T01:35:10;5.53;;;4.50;;
18505;SDS011;9382;53.242;10.438;2023-05-10T01:37:44;6.33;;;4.60;;
18505;SDS011;9382;53.242;10.438;2023-05-10T01:40:17;6.23;;;4.43;;
18505;SDS011;9382;53.242;10.438;2023-05-10T01:42:50;8.77;;;4.47;;
18505;SDS011;9382;53.242;10.438;2023-05-10T01:45:23;8.57;;;4.80;;
18505;SDS011;9382;53.242;10.438;2023-05-10T01:47:58;5.50;;;4.53;;
18505;SDS011;9382;53.242;10.438;2023-05-10T01:50:31;6.23;;;4.20;;
18505;SDS011;9382;53.242;10.438;2023-05-10T01:53:00;7.93;;;4.60;;
18505;SDS011;9382;53.242;10.438;2023-05-10T01:55:29;4.57;;;4.10;;
18505;SDS011;9382;53.242;10.438;2023-05-10T01:58:01;5.00;;;4.50;;
18505;SDS011;9382;53.242;10.438;2023-05-10T02:00:30;7.10;;;4.30;;
18505;SDS011;9382;53.242;10.438;2023-05-10T02:02:59;4.83;;;4.40;;
18505;SDS011;9382;53.242;10.438;2023-05-10T02:05:29;8.00;;;4.60;;
18505;SDS011;9382;53.242;10.438;2023-05-10T02:07:58;6.23;;;4.60;;
18505;SDS011;9382;53.242;10.438;2023-05-10T02:10:27;7.17;;;4.40;;
18505;SDS011;9382;53.242;10.438;2023-05-10T02:12:54;8.63;;;4.63;;
18505;SDS011;9382;53.242;10.438;2023-05-10T02:15:25;6.77;;;4.60;;
18505;SDS011;9382;53.242;10.438;2023-05-10T02:17:54;4.97;;;4.30;;
18505;SDS011;9382;53.242;10.438;2023-05-10T02:20:23;6.20;;;4.30;;
18505;SDS011;9382;53.242;10.438;2023-05-10T02:22:51;5.40;;;4.40;;
18505;SDS011;9382;53.242;10.438;2023-05-10T02:25:21;6.97;;;4.73;;
18505;SDS011;9382;53.242;10.438;2023-05-10T02:27:49;7.07;;;4.50;;
18505;SDS011;9382;53.242;10.438;2023-05-10T02:30:17;5.53;;;4.70;;
18505;SDS011;9382;53.242;10.438;2023-05-10T02:32:45;6.90;;;4.70;;
18505;SDS011;9382;53.242;10.438;2023-05-10T02:35:12;4.50;;;4.10;;
18505;SDS011;9382;53.242;10.438;2023-05-10T02:37:41;6.50;;;4.47;;
18505;SDS011;9382;53.242;10.438;2023-05-10T02:40:09;6.13;;;4.60;;
18505;SDS011;9382;53.242;10.438;2023-05-10T02:42:38;5.07;;;4.37;;
18505;SDS011;9382;53.242;10.438;2023-05-10T02:45:11;8.40;;;4.90;;
18505;SDS011;9382;53.242;10.438;2023-05-10T02:47:41;7.43;;;4.80;;
18505;SDS011;9382;53.242;10.438;2023-05-10T02:50:08;7.43;;;4.70;;
18505;SDS011;9382;53.242;10.438;2023-05-10T02:52:38;7.63;;;4.77;;
18505;SDS011;9382;53.242;10.438;2023-05-10T02:55:09;8.10;;;4.53;;
18505;SDS011;9382;53.242;10.438;2023-05-10T02:57:39;5.33;;;4.10;;
18505;SDS011;9382;53.242;10.438;2023-05-10T03:00:08;6.43;;;4.47;;
18505;SDS011;9382;53.242;10.438;2023-05-10T03:02:35;6.90;;;4.93;;
18505;SDS011;9382;53.242;10.438;2023-05-10T03:05:02;5.40;;;4.43;;
18505;SDS011;9382;53.242;10.438;2023-05-10T03:07:50;6.40;;;5.07;;
18505;SDS011;9382;53.242;10.438;2023-05-10T03:10:20;6.97;;;5.13;;
18505;SDS011;9382;53.242;10.438;2023-05-10T03:12:56;6.03;;;4.80;;
18505;SDS011;9382;53.242;10.438;2023-05-10T03:15:47;6.27;;;4.50;;
18505;SDS011;9382;53.242;10.438;2023-05-10T03:18:27;8.63;;;4.90;;
18505;SDS011;9382;53.242;10.438;2023-05-10T03:21:03;5.57;;;4.50;;
18505;SDS011;9382;53.242;10.438;2023-05-10T03:23:40;6.90;;;5.00;;
18505;SDS011;9382;53.242;10.438;2023-05-10T03:26:10;7.70;;;4.90;;
18505;SDS011;9382;53.242;10.438;2023-05-10T03:28:57;5.20;;;4.60;;
18505;SDS011;9382;53.242;10.438;2023-05-10T03:31:24;7.00;;;4.60;;
18505;SDS011;9382;53.242;10.438;2023-05-10T03:33:52;8.57;;;4.83;;
18505;SDS011;9382;53.242;10.438;2023-05-10T03:36:19;4.97;;;4.33;;
18505;SDS011;9382;53.242;10.438;2023-05-10T03:38:48;6.93;;;4.80;;
18505;SDS011;9382;53.242;10.438;2023-05-10T03:41:19;5.03;;;4.50;;
18505;SDS011;9382;53.242;10.438;2023-05-10T03:43:51;6.20;;;4.50;;
18505;SDS011;9382;53.242;10.438;2023-05-10T03:46:18;7.70;;;4.67;;
18505;SDS011;9382;53.242;10.438;2023-05-10T03:48:47;6.40;;;4.83;;
18505;SDS011;9382;53.242;10.438;2023-05-10T03:51:14;5.40;;;4.73;;
18505;SDS011;9382;53.242;10.438;2023-05-10T03:53:41;7.77;;;4.97;;
18505;SDS011;9382;53.242;10.438;2023-05-10T03:56:11;5.57;;;4.73;;
18505;SDS011;9382;53.242;10.438;2023-05-10T03:58:39;7.20;;;4.60;;
18505;SDS011;9382;53.242;10.438;2023-05-10T04:01:06;7.97;;;5.17;;
18505;SDS011;9382;53.242;10.438;2023-05-10T04:03:32;6.23;;;4.60;;
18505;SDS011;9382;53.242;10.438;2023-05-10T04:06:00;6.03;;;4.40;;
18505;SDS011;9382;53.242;10.438;2023-05-10T04:08:28;9.43;;;4.87;;
18505;SDS011;9382;53.242;10.438;2023-05-10T04:10:54;6.00;;;4.63;;
18505;SDS011;9382;53.242;10.438;2023-05-10T04:13:30;5.73;;;4.47;;
18505;SDS011;9382;53.242;10.438;2023-05-10T04:15:58;6.87;;;4.30;;
18505;SDS011;9382;53.242;10.438;2023-05-10T04:18:25;7.77;;;4.70;;
18505;SDS011;9382;53.242;10.438;2023-05-10T04:20:51;6.57;;;4.90;;
18505;SDS011;9382;53.242;10.438;2023-05-10T04:23:18;6.50;;;4.90;;
18505;SDS011;9382;53.242;10.438;2023-05-10T04:25:45;7.10;;;4.90;;
18505;SDS011;9382;53.242;10.438;2023-05-10T04:28:11;5.20;;;4.57;;
18505;SDS011;9382;53.242;10.438;2023-05-10T04:30:38;7.43;;;4.80;;
18505;SDS011;9382;53.242;10.438;2023-05-10T04:33:06;5.80;;;4.80;;
18505;SDS011;9382;53.242;10.438;2023-05-10T04:35:33;7.60;;;4.77;;
18505;SDS011;9382;53.242;10.438;2023-05-10T04:38:00;6.00;;;4.50;;
18505;SDS011;9382;53.242;10.438;2023-05-10T04:40:27;8.27;;;4.93;;
18505;SDS011;9382;53.242;10.438;2023-05-10T04:42:54;6.73;;;4.90;;
18505;SDS011;9382;53.242;10.438;2023-05-10T04:45:20;5.87;;;4.80;;
18505;SDS011;9382;53.242;10.438;2023-05-10T04:47:47;5.03;;;4.37;;
18505;SDS011;9382;53.242;10.438;2023-05-10T04:50:15;5.63;;;4.50;;
18505;SDS011;9382;53.242;10.438;2023-05-10T04:52:42;8.07;;;5.20;;
18505;SDS011;9382;53.242;10.438;2023-05-10T04:55:08;4.93;;;4.43;;
18505;SDS011;9382;53.242;10.438;2023-05-10T04:57:35;7.37;;;4.60;;
18505;SDS011;9382;53.242;10.438;2023-05-10T05:00:02;7.13;;;4.80;;
18505;SDS011;9382;53.242;10.438;2023-05-10T05:02:29;8.20;;;5.00;;
18505;SDS011;9382;53.242;10.438;2023-05-10T05:04:56;7.60;;;4.40;;
18505;SDS011;9382;53.242;10.438;2023-05-10T05:07:24;6.57;;;4.43;;
18505;SDS011;9382;53.242;10.438;2023-05-10T05:09:51;7.77;;;4.63;;
18505;SDS011;9382;53.242;10.438;2023-05-10T05:12:18;6.17;;;4.73;;
18505;SDS011;9382;53.242;10.438;2023-05-10T05:14:44;7.80;;;5.00;;
18505;SDS011;9382;53.242;10.438;2023-05-10T05:17:11;7.17;;;4.67;;
18505;SDS011;9382;53.242;10.438;2023-05-10T05:19:38;5.60;;;4.50;;
18505;SDS011;9382;53.242;10.438;2023-05-10T05:22:06;5.27;;;4.60;;
18505;SDS011;9382;53.242;10.438;2023-05-10T05:24:35;6.43;;;4.80;;
18505;SDS011;9382;53.242;10.438;2023-05-10T05:27:03;5.23;;;4.70;;
18505;SDS011;9382;53.242;10.438;2023-05-10T05:29:29;5.93;;;4.60;;
18505;SDS011;9382;53.242;10.438;2023-05-10T05:31:56;7.27;;;4.60;;
18505;SDS011;9382;53.242;10.438;2023-05-10T05:34:23;5.47;;;4.80;;
18505;SDS011;9382;53.242;10.438;2023-05-10T05:36:50;5.37;;;4.67;;
18505;SDS011;9382;53.242;10.438;2023-05-10T05:39:16;5.53;;;4.70;;
18505;SDS011;9382;53.242;10.438;2023-05-10T05:41:44;7.90;;;4.93;;
18505;SDS011;9382;53.242;10.438;2023-05-10T05:44:12;6.50;;;4.53;;
18505;SDS011;9382;53.242;10.438;2023-05-10T05:46:38;7.50;;;5.07;;
18505;SDS011;9382;53.242;10.438;2023-05-10T05:49:05;7.47;;;4.80;;
18505;SDS011;9382;53.242;10.438;2023-05-10T05:51:32;4.83;;;4.33;;
18505;SDS011;9382;53.242;10.438;2023-05-10T05:53:59;5.23;;;4.40;;
18505;SDS011;9382;53.242;10.438;2023-05-10T05:56:26;4.80;;;4.40;;
18505;SDS011;9382;53.242;10.438;2023-05-10T05:58:54;4.60;;;4.20;;
18505;SDS011;9382;53.242;10.438;2023-05-10T06:01:21;5.33;;;4.40;;
18505;SDS011;9382;53.242;10.438;2023-05-10T06:03:47;5.27;;;4.40;;
18505;SDS011;9382;53.242;10.438;2023-05-10T06:06:14;5.60;;;4.30;;
18505;SDS011;9382;53.242;10.438;2023-05-10T06:08:41;7.07;;;4.73;;
18505;SDS011;9382;53.242;10.438;2023-05-10T06:11:07;5.63;;;4.50;;
18505;SDS011;9382;53.242;10.438;2023-05-10T06:13:34;6.27;;;4.30;;
18505;SDS011;9382;53.242;10.438;2023-05-10T06:16:02;6.57;;;4.57;;
18505;SDS011;9382;53.242;10.438;2023-05-10T06:18:29;7.70;;;4.90;;
18505;SDS011;9382;53.242;10.438;2023-05-10T06:20:56;4.97;;;4.47;;
18505;SDS011;9382;53.242;10.438;2023-05-10T06:23:23;6.57;;;4.20;;
18505;SDS011;9382;53.242;10.438;2023-05-10T06:25:50;4.67;;;4.27;;
18505;SDS011;9382;53.242;10.438;2023-05-10T06:28:17;5.67;;;4.30;;
18505;SDS011;9382;53.242;10.438;2023-05-10T06:30:44;5.37;;;4.73;;
18505;SDS011;9382;53.242;10.438;2023-05-10T06:33:12;4.83;;;4.37;;
18505;SDS011;9382;53.242;10.438;2023-05-10T06:35:38;5.40;;;4.67;;
18505;SDS011;9382;53.242;10.438;2023-05-10T06:38:05;5.77;;;4.70;;
18505;SDS011;9382;53.242;10.438;2023-05-10T06:40:32;4.93;;;4.43;;
18505;SDS011;9382;53.242;10.438;2023-05-10T06:42:58;7.13;;;4.70;;
18505;SDS011;9382;53.242;10.438;2023-05-10T06:45:25;5.33;;;4.20;;
18505;SDS011;9382;53.242;10.438;2023-05-10T06:47:51;6.07;;;4.30;;
18505;SDS011;9382;53.242;10.438;2023-05-10T06:50:19;6.27;;;4.43;;
18505;SDS011;9382;53.242;10.438;2023-05-10T06:52:46;5.27;;;4.50;;
18505;SDS011;9382;53.242;10.438;2023-05-10T06:55:13;6.67;;;4.53;;
18505;SDS011;9382;53.242;10.438;2023-05-10T06:57:40;6.60;;;4.40;;
18505;SDS011;9382;53.242;10.438;2023-05-10T07:00:07;18.20;;;4.30;;
18505;SDS011;9382;53.242;10.438;2023-05-10T07:02:34;6.67;;;4.33;;
18505;SDS011;9382;53.242;10.438;2023-05-10T07:05:01;5.20;;;4.17;;
18505;SDS011;9382;53.242;10.438;2023-05-10T07:07:29;5.13;;;4.13;;
18505;SDS011;9382;53.242;10.438;2023-05-10T07:09:56;6.80;;;4.13;;
18505;SDS011;9382;53.242;10.438;2023-05-10T07:12:23;5.73;;;4.30;;
18505;SDS011;9382;53.242;10.438;2023-05-10T07:14:50;5.27;;;4.50;;
18505;SDS011;9382;53.242;10.438;2023-05-10T07:17:17;7.30;;;4.40;;
18505;SDS011;9382;53.242;10.438;2023-05-10T07:19:43;5.43;;;4.13;;
18505;SDS011;9382;53.242;10.438;2023-05-10T07:22:10;5.83;;;4.23;;
18505;SDS011;9382;53.242;10.438;2023-05-10T07:24:38;8.57;;;4.30;;
18505;SDS011;9382;53.242;10.438;2023-05-10T07:27:05;9.07;;;4.23;;
18505;SDS011;9382;53.242;10.438;2023-05-10T07:29:32;5.63;;;4.10;;
18505;SDS011;9382;53.242;10.438;2023-05-10T07:31:59;4.33;;;3.93;;
18505;SDS011;9382;53.242;10.438;2023-05-10T07:34:26;5.33;;;4.17;;
18505;SDS011;9382;53.242;10.438;2023-05-10T07:36:53;5.27;;;4.00;;
18505;SDS011;9382;53.242;10.438;2023-05-10T07:39:19;8.03;;;4.40;;
18505;SDS011;9382;53.242;10.438;2023-05-10T07:41:47;4.50;;;4.10;;
18505;SDS011;9382;53.242;10.438;2023-05-10T07:44:14;6.47;;;4.20;;
18505;SDS011;9382;53.242;10.438;2023-05-10T07:46:43;5.27;;;3.90;;
18505;SDS011;9382;53.242;10.438;2023-05-10T07:49:10;6.47;;;4.20;;
18505;SDS011;9382;53.242;10.438;2023-05-10T07:51:36;6.40;;;4.00;;
18505;SDS011;9382;53.242;10.438;2023-05-10T07:54:03;5.70;;;4.03;;
18505;SDS011;9382;53.242;10.438;2023-05-10T07:56:30;7.13;;;3.97;;
18505;SDS011;9382;53.242;10.438;2023-05-10T07:58:59;5.70;;;3.80;;
18505;SDS011;9382;53.242;10.438;2023-05-10T08:01:26;5.13;;;4.23;;
18505;SDS011;9382;53.242;10.438;2023-05-10T08:03:55;5.83;;;4.33;;
18505;SDS011;9382;53.242;10.438;2023-05-10T08:06:22;7.70;;;4.00;;
18505;SDS011;9382;53.242;10.438;2023-05-10T08:08:50;7.13;;;4.03;;
18505;SDS011;9382;53.242;10.438;2023-05-10T08:11:19;5.47;;;4.30;;
18505;SDS011;9382;53.242;10.438;2023-05-10T08:13:46;6.97;;;4.20;;
18505;SDS011;9382;53.242;10.438;2023-05-10T08:16:15;5.17;;;4.17;;
18505;SDS011;9382;53.242;10.438;2023-05-10T08:18:43;6.40;;;4.30;;
18505;SDS011;9382;53.242;10.438;2023-05-10T08:21:11;6.73;;;4.20;;
18505;SDS011;9382;53.242;10.438;2023-05-10T08:23:38;5.83;;;4.23;;
18505;SDS011;9382;53.242;10.438;2023-05-10T08:26:05;6.60;;;3.97;;
18505;SDS011;9382;53.242;10.438;2023-05-10T08:28:32;5.27;;;4.50;;
18505;SDS011;9382;53.242;10.438;2023-05-10T08:30:59;4.80;;;4.30;;
18505;SDS011;9382;53.242;10.438;2023-05-10T08:33:27;7.40;;;4.23;;
18505;SDS011;9382;53.242;10.438;2023-05-10T08:35:53;6.87;;;4.60;;
18505;SDS011;9382;53.242;10.438;2023-05-10T08:38:20;5.57;;;4.70;;
18505;SDS011;9382;53.242;10.438;2023-05-10T08:40:47;6.17;;;4.63;;
18505;SDS011;9382;53.242;10.438;2023-05-10T08:43:15;8.67;;;4.70;;
18505;SDS011;9382;53.242;10.438;2023-05-10T08:45:43;8.33;;;4.80;;
18505;SDS011;9382;53.242;10.438;2023-05-10T08:48:11;5.90;;;4.57;;
18505;SDS011;9382;53.242;10.438;2023-05-10T08:50:40;8.97;;;4.67;;
18505;SDS011;9382;53.242;10.438;2023-05-10T08:53:09;6.13;;;4.63;;
18505;SDS011;9382;53.242;10.438;2023-05-10T08:55:37;7.50;;;5.03;;
18505;SDS011;9382;53.242;10.438;2023-05-10T08:58:05;6.20;;;4.63;;
18505;SDS011;9382;53.242;10.438;2023-05-10T09:00:32;8.53;;;4.77;;
18505;SDS011;9382;53.242;10.438;2023-05-10T09:03:00;8.73;;;5.10;;
18505;SDS011;9382;53.242;10.438;2023-05-10T09:05:27;8.77;;;4.87;;
18505;SDS011;9382;53.242;10.438;2023-05-10T09:07:55;9.07;;;5.20;;
18505;SDS011;9382;53.242;10.438;2023-05-10T09:10:22;7.10;;;4.80;;
18505;SDS011;9382;53.242;10.438;2023-05-10T09:12:50;8.23;;;5.10;;
18505;SDS011;9382;53.242;10.438;2023-05-10T09:15:18;7.77;;;4.80;;
18505;SDS011;9382;53.242;10.438;2023-05-10T09:17:45;6.10;;;4.73;;
18505;SDS011;9382;53.242;10.438;2023-05-10T09:20:13;7.53;;;5.00;;
18505;SDS011;9382;53.242;10.438;2023-05-10T09:22:39;7.00;;;5.10;;
18505;SDS011;9382;53.242;10.438;2023-05-10T09:25:08;7.00;;;5.13;;
18505;SDS011;9382;53.242;10.438;2023-05-10T09:27:36;8.20;;;4.80;;
18505;SDS011;9382;53.242;10.438;2023-05-10T09:30:04;7.70;;;5.10;;
18505;SDS011;9382;53.242;10.438;2023-05-10T09:32:38;6.03;;;5.10;;
18505;SDS011;9382;53.242;10.438;2023-05-10T09:35:06;7.37;;;5.20;;
18505;SDS011;9382;53.242;10.438;2023-05-10T09:37:33;8.70;;;5.30;;
18505;SDS011;9382;53.242;10.438;2023-05-10T09:40:00;7.27;;;5.23;;
18505;SDS011;9382;53.242;10.438;2023-05-10T09:42:32;6.63;;;5.33;;
18505;SDS011;9382;53.242;10.438;2023-05-10T09:45:00;8.40;;;4.80;;
18505;SDS011;9382;53.242;10.438;2023-05-10T09:47:28;7.47;;;5.20;;
18505;SDS011;9382;53.242;10.438;2023-05-10T09:49:55;8.77;;;5.03;;
18505;SDS011;9382;53.242;10.438;2023-05-10T09:52:28;9.37;;;4.97;;
18505;SDS011;9382;53.242;10.438;2023-05-10T09:54:55;8.73;;;5.03;;
18505;SDS011;9382;53.242;10.438;2023-05-10T09:57:22;11.50;;;5.37;;
18505;SDS011;9382;53.242;10.438;2023-05-10T09:59:52;5.43;;;4.83;;
18505;SDS011;9382;53.242;10.438;2023-05-10T10:02:19;6.83;;;4.93;;
18505;SDS011;9382;53.242;10.438;2023-05-10T10:04:48;7.07;;;4.87;;
18505;SDS011;9382;53.242;10.438;2023-05-10T10:07:17;7.57;;;5.57;;
18505;SDS011;9382;53.242;10.438;2023-05-10T10:09:49;6.43;;;5.50;;
18505;SDS011;9382;53.242;10.438;2023-05-10T10:12:16;6.87;;;5.07;;
18505;SDS011;9382;53.242;10.438;2023-05-10T10:14:42;6.33;;;5.47;;
18505;SDS011;9382;53.242;10.438;2023-05-10T10:17:11;9.47;;;5.67;;
18505;SDS011;9382;53.242;10.438;2023-05-10T10:19:38;8.93;;;5.73;;
18505;SDS011;9382;53.242;10.438;2023-05-10T10:22:06;6.83;;;5.57;;
18505;SDS011;9382;53.242;10.438;2023-05-10T10:24:32;7.93;;;5.93;;
18505;SDS011;9382;53.242;10.438;2023-05-10T10:27:01;9.73;;;6.57;;
18505;SDS011;9382;53.242;10.438;2023-05-10T10:29:36;8.60;;;6.47;;
18505;SDS011;9382;53.242;10.438;2023-05-10T10:32:17;7.17;;;6.20;;
18505;SDS011;9382;53.242;10.438;2023-05-10T10:34:50;9.20;;;5.93;;
18505;SDS011;9382;53.242;10.438;2023-05-10T10:37:17;10.60;;;6.37;;
18505;SDS011;9382;53.242;10.438;2023-05-10T10:39:44;8.77;;;6.90;;
18505;SDS011;9382;53.242;10.438;2023-05-10T10:42:13;9.60;;;6.80;;
18505;SDS011;9382;53.242;10.438;2023-05-10T10:44:40;10.00;;;6.93;;
18505;SDS011;9382;53.242;10.438;2023-05-10T10:47:22;9.17;;;7.13;;
18505;SDS011;9382;53.242;10.438;2023-05-10T10:49:53;9.67;;;6.90;;
18505;SDS011;9382;53.242;10.438;2023-05-10T10:52:30;9.77;;;6.97;;
18505;SDS011;9382;53.242;10.438;2023-05-10T10:54:59;11.53;;;8.17;;
18505;SDS011;9382;53.242;10.438;2023-05-10T10:57:28;13.80;;;8.23;;
18505;SDS011;9382;53.242;10.438;2023-05-10T11:02:46;13.43;;;8.50;;
18505;SDS011;9382;53.242;10.438;2023-05-10T11:05:24;11.93;;;8.67;;
18505;SDS011;9382;53.242;10.438;2023-05-10T11:07:59;13.23;;;8.63;;
18505;SDS011;9382;53.242;10.438;2023-05-10T11:10:32;11.70;;;9.23;;
18505;SDS011;9382;53.242;10.438;2023-05-10T11:12:59;12.93;;;8.53;;
18505;SDS011;9382;53.242;10.438;2023-05-10T11:15:30;12.77;;;8.97;;
18505;SDS011;9382;53.242;10.438;2023-05-10T11:17:59;12.07;;;8.50;;
18505;SDS011;9382;53.242;10.438;2023-05-10T11:20:41;12.33;;;8.53;;
18505;SDS011;9382;53.242;10.438;2023-05-10T11:23:12;11.83;;;8.27;;
18505;SDS011;9382;53.242;10.438;2023-05-10T11:25:41;13.37;;;8.90;;
18505;SDS011;9382;53.242;10.438;2023-05-10T11:28:09;10.80;;;8.60;;
18505;SDS011;9382;53.242;10.438;2023-05-10T11:30:36;12.60;;;8.83;;
18505;SDS011;9382;53.242;10.438;2023-05-10T11:33:06;11.80;;;8.70;;
18505;SDS011;9382;53.242;10.438;2023-05-10T11:35:36;11.20;;;8.50;;
18505;SDS011;9382;53.242;10.438;2023-05-10T11:38:05;10.37;;;8.17;;
18505;SDS011;9382;53.242;10.438;2023-05-10T11:40:32;10.37;;;8.03;;
18505;SDS011;9382;53.242;10.438;2023-05-10T11:42:59;9.00;;;7.60;;
18505;SDS011;9382;53.242;10.438;2023-05-10T11:45:25;11.27;;;8.43;;
18505;SDS011;9382;53.242;10.438;2023-05-10T11:47:53;10.03;;;7.83;;
18505;SDS011;9382;53.242;10.438;2023-05-10T11:50:21;11.30;;;7.80;;
18505;SDS011;9382;53.242;10.438;2023-05-10T11:52:50;10.33;;;8.13;;
18505;SDS011;9382;53.242;10.438;2023-05-10T11:55:17;10.67;;;8.13;;
18505;SDS011;9382;53.242;10.438;2023-05-10T11:57:44;10.67;;;7.70;;
18505;SDS011;9382;53.242;10.438;2023-05-10T12:00:11;10.43;;;8.30;;
18505;SDS011;9382;53.242;10.438;2023-05-10T12:02:38;10.13;;;7.67;;
18505;SDS011;9382;53.242;10.438;2023-05-10T12:05:05;10.77;;;8.33;;
18505;SDS011;9382;53.242;10.438;2023-05-10T12:07:34;10.90;;;7.70;;
18505;SDS011;9382;53.242;10.438;2023-05-10T12:10:05;10.53;;;7.90;;
18505;SDS011;9382;53.242;10.438;2023-05-10T12:12:36;10.43;;;8.00;;
18505;SDS011;9382;53.242;10.438;2023-05-10T12:15:04;11.60;;;8.03;;
18505;SDS011;9382;53.242;10.438;2023-05-10T12:17:36;11.40;;;7.70;;
18505;SDS011;9382;53.242;10.438;2023-05-10T12:20:13;9.63;;;7.97;;
18505;SDS011;9382;53.242;10.438;2023-05-10T12:22:42;9.73;;;7.87;;
18505;SDS011;9382;53.242;10.438;2023-05-10T12:25:10;12.00;;;8.47;;
18505;SDS011;9382;53.242;10.438;2023-05-10T12:27:37;10.50;;;8.43;;
18505;SDS011;9382;53.242;10.438;2023-05-10T12:30:04;13.57;;;8.83;;
18505;SDS011;9382;53.242;10.438;2023-05-10T12:32:38;11.73;;;8.70;;
18505;SDS011;9382;53.242;10.438;2023-05-10T12:35:06;10.53;;;8.17;;
18505;SDS011;9382;53.242;10.438;2023-05-10T12:37:34;12.00;;;8.40;;
18505;SDS011;9382;53.242;10.438;2023-05-10T12:40:06;11.03;;;8.60;;
18505;SDS011;9382;53.242;10.438;2023-05-10T12:42:34;11.13;;;8.50;;
18505;SDS011;9382;53.242;10.438;2023-05-10T12:45:01;12.47;;;8.70;;
18505;SDS011;9382;53.242;10.438;2023-05-10T12:47:28;9.97;;;8.13;;
18505;SDS011;9382;53.242;10.438;2023-05-10T12:49:55;12.07;;;8.47;;
18505;SDS011;9382;53.242;10.438;2023-05-10T12:52:22;9.67;;;7.93;;
18505;SDS011;9382;53.242;10.438;2023-05-10T12:54:48;11.90;;;8.07;;
18505;SDS011;9382;53.242;10.438;2023-05-10T12:57:16;9.27;;;7.63;;
18505;SDS011;9382;53.242;10.438;2023-05-10T12:59:43;10.83;;;8.10;;
18505;SDS011;9382;53.242;10.438;2023-05-10T13:02:12;11.23;;;8.03;;
18505;SDS011;9382;53.242;10.438;2023-05-10T13:04:43;9.30;;;7.60;;
18505;SDS011;9382;53.242;10.438;2023-05-10T13:07:09;8.93;;;7.37;;
18505;SDS011;9382;53.242;10.438;2023-05-10T13:09:36;9.10;;;7.10;;
18505;SDS011;9382;53.242;10.438;2023-05-10T13:12:03;8.60;;;6.90;;
18505;SDS011;9382;53.242;10.438;2023-05-10T13:14:37;8.60;;;6.20;;
18505;SDS011;9382;53.242;10.438;2023-05-10T13:17:11;7.57;;;6.80;;
18505;SDS011;9382;53.242;10.438;2023-05-10T13:19:40;9.33;;;6.17;;
18505;SDS011;9382;53.242;10.438;2023-05-10T13:22:13;6.70;;;6.00;;
18505;SDS011;9382;53.242;10.438;2023-05-10T13:24:46;7.00;;;5.90;;
18505;SDS011;9382;53.242;10.438;2023-05-10T13:27:13;8.47;;;6.27;;
18505;SDS011;9382;53.242;10.438;2023-05-10T13:29:41;7.77;;;5.87;;
18505;SDS011;9382;53.242;10.438;2023-05-10T13:32:07;7.47;;;6.07;;
18505;SDS011;9382;53.242;10.438;2023-05-10T13:34:34;9.97;;;6.23;;
18505;SDS011;9382;53.242;10.438;2023-05-10T13:37:25;5.97;;;5.37;;
18505;SDS011;9382;53.242;10.438;2023-05-10T13:40:05;5.47;;;4.90;;
18505;SDS011;9382;53.242;10.438;2023-05-10T13:42:32;6.37;;;5.40;;
18505;SDS011;9382;53.242;10.438;2023-05-10T13:45:04;7.77;;;5.60;;
18505;SDS011;9382;53.242;10.438;2023-05-10T13:47:49;7.67;;;5.47;;
18505;SDS011;9382;53.242;10.438;2023-05-10T13:50:17;5.93;;;5.17;;
18505;SDS011;9382;53.242;10.438;2023-05-10T13:52:44;5.20;;;4.70;;
18505;SDS011;9382;53.242;10.438;2023-05-10T13:55:10;5.00;;;4.50;;
18505;SDS011;9382;53.242;10.438;2023-05-10T13:57:41;5.40;;;4.70;;
18505;SDS011;9382;53.242;10.438;2023-05-10T14:00:12;6.47;;;5.13;;
18505;SDS011;9382;53.242;10.438;2023-05-10T14:02:40;6.47;;;5.30;;
18505;SDS011;9382;53.242;10.438;2023-05-10T14:05:07;6.00;;;5.40;;
18505;SDS011;9382;53.242;10.438;2023-05-10T14:07:34;6.03;;;4.63;;
18505;SDS011;9382;53.242;10.438;2023-05-10T14:10:01;5.10;;;4.60;;
18505;SDS011;9382;53.242;10.438;2023-05-10T14:12:34;5.60;;;4.47;;
18505;SDS011;9382;53.242;10.438;2023-05-10T14:15:01;5.13;;;4.07;;
18505;SDS011;9382;53.242;10.438;2023-05-10T14:17:37;5.53;;;3.73;;
18505;SDS011;9382;53.242;10.438;2023-05-10T14:20:05;3.47;;;3.27;;
18505;SDS011;9382;53.242;10.438;2023-05-10T14:22:35;4.50;;;4.10;;
18505;SDS011;9382;53.242;10.438;2023-05-10T14:25:02;4.30;;;3.90;;
18505;SDS011;9382;53.242;10.438;2023-05-10T14:27:31;4.27;;;3.80;;
18505;SDS011;9382;53.242;10.438;2023-05-10T14:30:01;4.37;;;3.97;;
18505;SDS011;9382;53.242;10.438;2023-05-10T14:32:28;3.90;;;3.60;;
18505;SDS011;9382;53.242;10.438;2023-05-10T14:34:58;4.17;;;3.87;;
18505;SDS011;9382;53.242;10.438;2023-05-10T14:37:25;4.10;;;3.73;;
18505;SDS011;9382;53.242;10.438;2023-05-10T14:39:52;3.90;;;3.37;;
18505;SDS011;9382;53.242;10.438;2023-05-10T14:42:19;3.40;;;3.10;;
18505;SDS011;9382;53.242;10.438;2023-05-10T14:44:49;3.57;;;3.30;;
18505;SDS011;9382;53.242;10.438;2023-05-10T14:47:16;5.40;;;3.53;;
18505;SDS011;9382;53.242;10.438;2023-05-10T14:49:43;3.17;;;2.97;;
18505;SDS011;9382;53.242;10.438;2023-05-10T14:52:14;3.23;;;2.93;;
18505;SDS011;9382;53.242;10.438;2023-05-10T14:54:43;3.43;;;3.13;;
18505;SDS011;9382;53.242;10.438;2023-05-10T14:57:17;3.67;;;3.37;;
18505;SDS011;9382;53.242;10.438;2023-05-10T14:59:44;3.50;;;3.00;;